LEMD/MAD METAR and TAF weather

Enter ICAO airport designator
Station Type Date Time Source
LEMD METAR 2019/12/06 02:00 UTC NOAA

LEMD 060200Z 34004KT 9999 SCT043 BKN057 08/05 Q1022 NOSIG


Station Type Date Time Source
LEMD Decoded METAR 2019/12/06 02:00 UTC NOAA

Madrid / Barajas, Spain (LEMD) 40-27N 003-33W 582M
Dec 05, 2019 - 09:00 PM EST / 2019.12.06 0200 UTC
Wind: from the NNW (340 degrees) at 5 MPH (4 KT):0
Visibility: greater than 7 mile(s):0
Sky conditions: mostly cloudy
Temperature: 46 F (8 C)
Dew Point: 41 F (5 C)
Relative Humidity: 81%
Pressure (altimeter): 30.18 in. Hg (1022 hPa)
ob: LEMD 060200Z 34004KT 9999 SCT043 BKN057 08/05 Q1022 NOSIG
cycle: 2

Station Type Date Time Source
LEMD TAF 2019/12/05 18:28 UTC NOAA

TAF LEMD 051700Z 0518/0624 03012KT 9999 FEW025 SCT050 TX13/0615Z TN04/0606Z
BECMG 0520/0521 35006KT
BECMG 0609/0611 VRB04KT PROB30
TEMPO 0602/0607 4900 BR

Example: see airport list